Flight Track Log - Related Links

Times and Time Zones

All times are in EST time to prevent confusion due to time zone crossing. See the N865JM flight status page for this flight to view local times or setup timezone preferences in your user account.

Time Position Orientation Groundspeed Altitude Reporting Facility
EST Latitude Longitude Course Direction KTS MPH feet Rate Location/Type
Mon 01:07:25 PM 40.8167 -74.1167 270° West 179 206 1,500  Level New York TRACON
Mon 01:08:25 PM 40.8167 -74.1833 270° West 161 185 2,700 2,211 Climbing New York TRACON
Mon 01:09:19 PM 40.8167 -74.2500 270° West 213 245 5,700 3,579 Climbing New York TRACON
Mon 01:10:19 PM 40.8167 -74.3167 270° West 209 241 9,500 3,368 Climbing New York TRACON
Mon 01:11:13 PM 40.8167 -74.3833 270° West 226 260 12,100 2,684 Climbing New York TRACON
Mon 01:12:13 PM 40.8167 -74.4833 270° West 274 315 14,600 2,000 Climbing New York TRACON
Mon 01:13:43 PM 40.8106 -74.6450 267° West 288 331 17,100 1,000 Climbing New York Center
Mon 01:14:43 PM 40.7950 -74.7372 257° West 288 331 17,100 950 Level New York Center
Mon 01:15:43 PM 40.7706 -74.8400 253° West 298 343 19,000 1,950 Climbing New York Center
Mon 01:16:43 PM 40.7442 -74.9453 252° West 298 343 21,000 2,000 Climbing New York Center
Mon 01:17:43 PM 40.7172 -75.0531 252° West 303 349 23,000 2,000 Climbing New York Center
Mon 01:18:43 PM 40.6883 -75.1636 251° West 309 356 25,000 2,000 Climbing New York Center
Mon 01:19:43 PM 40.6633 -75.2714 253° West 309 356 27,000 1,850 Climbing New York Center
Mon 01:20:43 PM 40.6364 -75.3764 251° West 309 356 28,700 1,600 Climbing New York Center
Mon 01:21:43 PM 40.6092 -75.4867 252° West 314 361 30,200 1,450 Climbing New York Center
Mon 01:22:43 PM 40.5819 -75.5914 251° West 314 361 31,600 1,250 Climbing New York Center
Mon 01:23:43 PM 40.5525 -75.7011 251° West 319 367 32,700 1,050 Climbing New York Center
Mon 01:24:43 PM 40.5247 -75.8111 252° West 319 367 33,700 1,000 Climbing New York Center
Mon 01:25:43 PM 40.4908 -75.9206 248° West 319 367 34,700 1,000 Climbing New York Center
Mon 01:26:43 PM 40.4633 -76.0278 251° West 319 367 35,700 650 Climbing New York Center
Mon 01:27:43 PM 40.4375 -76.1375 253° West 319 367 36,000 150 Climbing New York Center
Mon 01:28:43 PM 40.4053 -76.2469 249° West 319 367 36,000  Level New York Center
Mon 01:29:43 PM 40.3753 -76.3561 250° West 319 367 36,000  Level New York Center
Mon 01:30:43 PM 40.3472 -76.4656 251° West 319 367 36,000  Level New York Center
Mon 01:31:43 PM 40.3353 -76.5817 262° West 319 367 36,000  Level New York Center
Mon 01:32:43 PM 40.3292 -76.7011 266° West 319 367 36,000  Level New York Center
Mon 01:33:43 PM 40.3214 -76.8147 265° West 324 373 36,000  Level New York Center
Mon 01:34:43 PM 40.3133 -76.9283 265° West 324 373 36,000  Level New York Center
Mon 01:35:43 PM 40.3072 -77.0478 266° West 329 379 36,000  Level New York Center
Mon 01:36:43 PM 40.2981 -77.1803 265° West 329 379 36,000  Level New York Center
Mon 01:37:43 PM 40.2922 -77.2858 266° West 329 379 36,000  Level New York Center
Mon 01:40:05 PM 40.2758 -77.5731 266° West 324 373 36,000  Level Cleveland Center
Mon 01:41:07 PM 40.2689 -77.6900 266° West 324 373 36,000  Level Cleveland Center
Mon 01:42:09 PM 40.2600 -77.8081 264° West 323 372 36,000  Level Cleveland Center
Mon 01:43:11 PM 40.2517 -77.9333 265° West 324 373 36,000  Level Cleveland Center
Mon 01:44:13 PM 40.2431 -78.0514 265° West 324 373 36,000  Level Cleveland Center
Mon 01:45:14 PM 40.2361 -78.1700 266° West 324 373 36,000  Level Cleveland Center
Mon 01:46:16 PM 40.2306 -78.2881 267° West 324 373 36,000  Level Cleveland Center
Mon 01:47:18 PM 40.2358 -78.4100 273° West 330 380 36,000  Level Cleveland Center
Mon 01:48:20 PM 40.2383 -78.5331 272° West 336 387 36,000  Level Cleveland Center
Mon 01:49:22 PM 40.2425 -78.6794 272° West 336 387 36,000  Level Cleveland Center
Mon 01:50:24 PM 40.2456 -78.8039 272° West 339 390 36,000  Level Cleveland Center
Mon 01:51:25 PM 40.2489 -78.9261 272° West 342 394 36,000  Level Cleveland Center
Mon 01:52:27 PM 40.2533 -79.0564 273° West 355 409 36,000  Level Cleveland Center
Mon 01:53:29 PM 40.2558 -79.1819 272° West 348 400 36,000  Level Cleveland Center
Mon 01:54:31 PM 40.2589 -79.3244 272° West 348 400 36,000  Level Cleveland Center
Mon 01:55:33 PM 40.2625 -79.4489 272° West 344 396 36,000  Level Cleveland Center
Mon 01:56:35 PM 40.2642 -79.5758 271° West 347 399 36,000  Level Cleveland Center
Mon 01:57:37 PM 40.2667 -79.7000 272° West 345 397 36,000  Level Cleveland Center
Mon 01:58:38 PM 40.2683 -79.8236 271° West 343 395 36,000  Level Cleveland Center
Mon 01:59:40 PM 40.2708 -79.9475 272° West 340 391 36,000  Level Cleveland Center
Mon 02:00:42 PM 40.2736 -80.0703 272° West 338 389 36,000  Level Cleveland Center
Mon 02:01:44 PM 40.2761 -80.1931 272° West 333 383 36,000  Level Cleveland Center
Mon 02:02:46 PM 40.2778 -80.3153 271° West 333 383 36,000  Level Cleveland Center
Mon 02:03:48 PM 40.2792 -80.4614 271° West 332 382 36,000  Level Cleveland Center
Mon 02:04:50 PM 40.2808 -80.5811 271° West 332 382 36,000  Level Cleveland Center
Mon 02:05:51 PM 40.2825 -80.7008 271° West 331 381 36,000  Level Cleveland Center
Mon 02:06:53 PM 40.2831 -80.8214 270° West 331 381 36,000  Level Cleveland Center
Mon 02:07:55 PM 40.2850 -80.9408 271° West 329 379 36,000  Level Cleveland Center
Mon 02:08:57 PM 40.2850 -81.0594 270° West 329 379 36,000  Level Cleveland Center
Mon 02:09:46 PM 40.2844 -81.1656 270° West 328 377 36,000  Level Indianapolis Center
Mon 02:10:48 PM 40.2850 -81.2853 270° West 326 375 36,000  Level Indianapolis Center
Mon 02:11:49 PM 40.2858 -81.4064 271° West 329 379 36,000  Level Indianapolis Center
Mon 02:12:51 PM 40.2875 -81.5258 271° West 327 376 36,000  Level Indianapolis Center
Mon 02:13:52 PM 40.2875 -81.6467 270° West 328 377 36,000  Level Indianapolis Center
Mon 02:14:54 PM 40.2872 -81.7675 270° West 328 377 36,000  Level Indianapolis Center
Mon 02:15:55 PM 40.2875 -81.8872 270° West 328 377 36,000 -244 Level Indianapolis Center
Mon 02:16:57 PM 40.2875 -82.0089 270° West 330 380 35,500 -484 Descending Indianapolis Center
Mon 02:17:59 PM 40.2875 -82.1475 270° West 324 373 35,000 -341 Descending Indianapolis Center
Mon 02:19:00 PM 40.2875 -82.2675 270° West 326 375 34,800 -341 Descending Indianapolis Center
Mon 02:20:02 PM 40.2864 -82.3850 269° West 322 371 34,300 -484 Descending Indianapolis Center
Mon 02:21:04 PM 40.2867 -82.4994 270° West 313 360 33,800 -488 Descending Indianapolis Center
Mon 02:22:05 PM 40.2861 -82.6083 270° West 300 345 33,300 -537 Descending Indianapolis Center
Mon 02:23:07 PM 40.2847 -82.7222 269° West 295 339 32,700 -532 Descending Indianapolis Center
Mon 02:24:09 PM 40.2844 -82.8278 270° West 292 336 32,200 -488 Descending Indianapolis Center
Mon 02:25:10 PM 40.2836 -82.9308 269° West 291 335 31,700 -488 Descending Indianapolis Center
Mon 02:26:12 PM 40.2831 -83.0381 270° West 290 334 31,200 -488 Descending Indianapolis Center
Mon 02:27:13 PM 40.2817 -83.1425 269° West 289 333 30,700 -488 Descending Indianapolis Center
Mon 02:28:15 PM 40.2797 -83.2472 269° West 290 334 30,200 -339 Descending Indianapolis Center
Mon 02:29:17 PM 40.2753 -83.3714 267° West 289 333 30,000 -98 Descending Indianapolis Center
Mon 02:30:18 PM 40.2681 -83.4781 265° West 295 339 30,000  Level Indianapolis Center
Mon 02:31:20 PM 40.2603 -83.5831 264° West 293 337 30,000  Level Indianapolis Center
Mon 02:32:21 PM 40.2539 -83.6903 266° West 297 342 30,000  Level Indianapolis Center
Mon 02:33:23 PM 40.2467 -83.7969 265° West 297 342 30,000  Level Indianapolis Center
Mon 02:34:25 PM 40.2392 -83.9033 265° West 294 338 30,000 -341 Level Indianapolis Center
Mon 02:35:26 PM 40.2306 -84.0306 265° West 293 337 29,300 -780 Descending Indianapolis Center
Mon 02:36:28 PM 40.2236 -84.1383 265° West 299 344 28,400 -774 Descending Indianapolis Center
Mon 02:37:30 PM 40.2147 -84.2494 264° West 307 353 27,700 -683 Descending Indianapolis Center
Mon 02:38:31 PM 40.2067 -84.3542 264° West 293 337 27,000 -683 Descending Indianapolis Center
Mon 02:39:33 PM 40.1992 -84.4561 265° West 285 328 26,300 -677 Descending Indianapolis Center
Mon 02:40:35 PM 40.1919 -84.5608 265° West 289 333 25,600 -683 Descending Indianapolis Center
Mon 02:41:36 PM 40.1844 -84.6642 265° West 288 331 24,900 -976 Descending Indianapolis Center
Mon 02:42:38 PM 40.1744 -84.7908 264° West 290 334 23,600 -1,452 Descending Indianapolis Center
Mon 02:43:40 PM 40.1656 -84.8903 263° West 282 325 21,900 -1,597 Descending Indianapolis Center
Mon 02:44:42 PM 40.1578 -84.9867 264° West 276 318 20,300 -1,610 Descending Indianapolis Center
Mon 02:45:43 PM 40.1489 -85.0922 264° West 292 336 18,600 -1,561 Descending Indianapolis Center
Mon 02:46:45 PM 40.1406 -85.1997 264° West 297 342 17,100 -1,548 Descending Indianapolis Center
Mon 02:47:47 PM 40.1311 -85.3267 264° West 294 338 15,400 -1,742 Descending Indianapolis Center
Mon 02:48:49 PM 40.1222 -85.4281 263° West 285 328 13,500 -1,756 Descending Indianapolis Center
Mon 02:49:50 PM 40.1142 -85.5292 264° West 283 326 11,800 -1,659 Descending Indianapolis Center
Mon 02:50:52 PM 40.1072 -85.6247 265° West 269 310 10,100 -1,548 Descending Indianapolis Center
Mon 02:51:54 PM 40.0997 -85.7061 263° West 232 267 8,600 -1,452 Descending Indianapolis Center
Mon 02:52:56 PM 40.0706 -85.7811 243° Southwest 236 272 7,100 -774 Descending Indianapolis Center
Mon 02:53:58 PM 40.0350 -85.8631 240° Southwest 226 260 7,000 -48 Descending Indianapolis Center
Mon 02:55:00 PM 40.0050 -85.9233 237° Southwest 212 244 7,000  Level Indianapolis Center
Mon 02:56:01 PM 39.9717 -85.9669 225° Southwest 185 213 7,000 -439 Level Indianapolis Center
Mon 02:57:03 PM 39.9383 -86.0136 227° Southwest 179 206 6,100 -823 Descending Indianapolis Center
Mon 02:58:05 PM 39.9058 -86.0592 227° Southwest 175 201 5,300 -774 Descending Indianapolis Center
Mon 02:59:07 PM 39.8739 -86.1036 227° Southwest 171 197 4,500 -774 Descending Indianapolis Center
Mon 03:00:09 PM 39.8414 -86.1469 226° Southwest 170 196 3,700 -732 Descending Indianapolis Center
Mon 03:01:10 PM 39.8053 -86.1950 226° Southwest 163 188 3,000 -634 Descending Indianapolis Center
Mon 03:02:12 PM 39.7786 -86.2286 224° Southwest 148 170 2,400 -629 Descending Indianapolis Center
Mon 03:03:14 PM 39.7558 -86.2575 224° Southwest 130 150 1,700 -726 Descending Indianapolis Center
Mon 03:04:16 PM 39.7300 -86.2903 224° Southwest 124 143 900 -488 Descending Indianapolis Center
Mon 03:05:17 PM 39.7067 -86.3203 225° Southwest 123 142 700 -197 Descending Indianapolis Center

Login

Don't have an account? Register now (free) for customized features, flight alerts, and more!